Time;durP1;ratioP1;P1;durP2;ratioP2;P2;SDS_P1;SDS_P2;PMS_P1;PMS_P2;Temp;Humidity;BMP_temperature;BMP_pressure;BME280_temperature;BME280_humidity;BME280_pressure;Samples;Min_cycle;Max_cycle;Signal;HPM_P1;HPM_P2
2022/05/05 00:00:58;;;;;;;12.45;5.53;;;9.30;81.60;;;;;;5012647;28;20054;-42
2022/05/05 00:03:25;;;;;;;11.93;5.30;;;9.30;81.90;;;;;;5013435;28;20041;-42
2022/05/05 00:05:54;;;;;;;13.45;5.45;;;9.30;82.00;;;;;;5012541;28;20108;-42
2022/05/05 00:08:21;;;;;;;15.23;5.75;;;9.30;82.20;;;;;;5012958;28;20042;-42
2022/05/05 00:16:16;;;;;;;13.18;5.70;;;9.20;82.70;;;;;;5012670;28;20050;-43
2022/05/05 00:18:43;;;;;;;13.07;5.35;;;9.10;82.80;;;;;;5013191;28;20072;-43
2022/05/05 00:21:11;;;;;;;12.32;5.97;;;9.10;82.90;;;;;;5012592;28;20054;-42
2022/05/05 00:23:37;;;;;;;10.55;5.18;;;9.10;83.00;;;;;;5009993;28;20068;-42
2022/05/05 00:26:04;;;;;;;11.07;5.15;;;9.10;82.90;;;;;;5013088;28;20137;-41
2022/05/05 00:28:31;;;;;;;12.82;5.57;;;9.10;82.80;;;;;;5003247;28;20037;-41
2022/05/05 00:30:58;;;;;;;12.25;4.85;;;9.00;83.60;;;;;;5012773;28;20519;-42
2022/05/05 00:33:24;;;;;;;15.85;5.93;;;9.00;83.60;;;;;;4996005;28;20053;-42
2022/05/05 00:35:51;;;;;;;15.63;4.82;;;9.00;84.50;;;;;;5013071;28;20046;-43
2022/05/05 00:38:19;;;;;;;14.88;4.95;;;9.00;84.60;;;;;;5009630;28;20054;-43
2022/05/05 00:40:48;;;;;;;12.25;4.55;;;8.90;85.20;;;;;;5012709;28;20058;-43
2022/05/05 00:43:15;;;;;;;12.30;5.03;;;8.90;85.30;;;;;;5008795;28;20056;-43
2022/05/05 00:45:42;;;;;;;12.98;5.20;;;8.80;85.20;;;;;;5013151;28;20045;-43
2022/05/05 00:48:12;;;;;;;11.80;5.15;;;8.80;85.60;;;;;;5012977;28;20053;-43
2022/05/05 00:50:39;;;;;;;10.68;4.97;;;8.80;86.00;;;;;;5003932;28;20564;-43
2022/05/05 00:53:06;;;;;;;12.88;4.80;;;8.80;86.40;;;;;;5012824;28;20049;-42
2022/05/05 00:55:35;;;;;;;14.05;5.47;;;8.70;86.40;;;;;;5012824;28;20045;-43
2022/05/05 00:58:02;;;;;;;15.40;5.40;;;8.80;86.90;;;;;;5011594;28;20417;-43
2022/05/05 01:00:29;;;;;;;11.43;5.25;;;8.70;87.00;;;;;;5010635;28;20046;-42
2022/05/05 01:02:56;;;;;;;11.75;4.60;;;8.70;87.30;;;;;;5012767;28;20054;-42
2022/05/05 01:05:23;;;;;;;14.85;5.43;;;8.70;87.30;;;;;;5012570;28;20056;-43
2022/05/05 01:07:49;;;;;;;16.20;5.15;;;8.70;87.60;;;;;;5012672;28;20049;-42
2022/05/05 01:10:16;;;;;;;11.55;4.75;;;8.70;87.90;;;;;;5004055;28;20470;-43
2022/05/05 01:12:44;;;;;;;13.68;5.30;;;8.70;88.00;;;;;;5010494;28;20056;-43
2022/05/05 01:15:11;;;;;;;11.43;4.90;;;8.70;88.30;;;;;;5010367;28;20148;-43
2022/05/05 01:17:38;;;;;;;14.88;5.25;;;8.60;88.30;;;;;;5012183;28;20046;-43
2022/05/05 01:20:12;;;;;;;9.98;4.43;;;8.60;88.50;;;;;;5012490;28;20061;-43
2022/05/05 01:22:40;;;;;;;15.52;5.90;;;8.60;88.20;;;;;;5012334;28;20061;-43
2022/05/05 01:30:36;;;;;;;13.00;5.05;;;8.60;88.70;;;;;;5011628;28;20050;-43
2022/05/05 01:33:10;;;;;;;10.25;5.30;;;8.60;88.50;;;;;;5012147;28;20049;-42
2022/05/05 01:35:37;;;;;;;16.08;5.30;;;8.60;88.40;;;;;;5012157;28;20077;-43
2022/05/05 01:38:05;;;;;;;10.65;4.90;;;8.60;88.60;;;;;;5012354;28;20049;-43
2022/05/05 01:40:32;;;;;;;16.30;6.28;;;8.60;88.90;;;;;;5013484;28;20054;-43
2022/05/05 01:42:58;;;;;;;13.05;5.20;;;8.60;89.00;;;;;;5012000;28;20050;-43
2022/05/05 01:45:25;;;;;;;10.60;4.70;;;8.60;89.00;;;;;;5010572;28;20092;-43
2022/05/05 01:47:52;;;;;;;10.68;5.25;;;8.50;89.20;;;;;;5015474;28;20426;-43
2022/05/05 01:50:18;;;;;;;9.50;4.63;;;8.50;89.30;;;;;;5015018;28;20425;-43
2022/05/05 01:52:45;;;;;;;12.20;5.25;;;8.50;89.50;;;;;;5014649;28;20045;-42
2022/05/05 01:55:13;;;;;;;13.20;5.80;;;8.50;89.70;;;;;;5011085;28;20050;-43
2022/05/05 01:57:40;;;;;;;9.85;5.20;;;8.50;89.80;;;;;;5013644;28;20050;-43
2022/05/05 02:00:08;;;;;;;9.73;4.97;;;8.50;89.70;;;;;;5015964;28;20065;-42
2022/05/05 02:02:34;;;;;;;13.43;6.05;;;8.50;89.90;;;;;;5015171;28;20046;-43
2022/05/05 02:05:01;;;;;;;14.52;6.50;;;8.40;90.10;;;;;;5015314;28;20124;-43
2022/05/05 02:07:28;;;;;;;11.18;5.50;;;8.40;90.30;;;;;;5014271;28;20506;-43
2022/05/05 02:09:54;;;;;;;13.23;5.75;;;8.40;90.40;;;;;;5014210;28;20132;-43
2022/05/05 02:12:22;;;;;;;13.93;5.85;;;8.40;90.50;;;;;;5011459;28;20050;-42
2022/05/05 02:14:49;;;;;;;16.98;6.55;;;8.40;90.40;;;;;;5013271;28;20053;-42
2022/05/05 02:17:16;;;;;;;16.00;6.30;;;8.40;90.70;;;;;;5014306;28;20471;-43
2022/05/05 02:19:42;;;;;;;11.35;5.47;;;8.40;90.70;;;;;;5015535;28;20125;-43
2022/05/05 02:22:14;;;;;;;13.05;5.82;;;8.30;90.90;;;;;;5014921;28;20049;-43
2022/05/05 02:24:41;;;;;;;;;;;8.40;91.00;;;;;;5015078;28;20061;-43
2022/05/05 02:27:08;;;;;;;8.73;5.40;;;8.40;89.30;;;;;;5015027;28;19928;-43
2022/05/05 02:29:36;;;;;;;11.00;5.95;;;8.30;90.40;;;;;;5013095;28;20430;-43
2022/05/05 02:32:02;;;;;;;10.40;5.97;;;8.30;90.50;;;;;;5014963;28;20549;-43
2022/05/05 02:34:29;;;;;;;14.50;6.53;;;8.30;90.70;;;;;;5015164;28;20482;-43
2022/05/05 02:39:40;;;;;;;13.30;6.60;;;8.30;90.80;;;;;;5005942;28;20450;-42
2022/05/05 02:42:07;;;;;;;14.38;6.32;;;8.30;91.00;;;;;;5014084;28;20049;-43
2022/05/05 02:44:35;;;;;;;9.20;6.30;;;8.30;91.20;;;;;;5006846;28;20050;-43
2022/05/05 02:47:02;;;;;;;11.32;6.07;;;8.20;91.20;;;;;;5013962;28;20058;-43
2022/05/05 02:49:29;;;;;;;12.95;7.18;;;8.20;91.10;;;;;;5014319;28;20090;-42
2022/05/05 02:51:56;;;;;;;10.38;6.03;;;8.20;91.30;;;;;;5013211;28;20056;-43
2022/05/05 02:57:07;;;;;;;11.50;6.00;;;8.20;91.40;;;;;;5014535;28;20410;-43
2022/05/05 02:59:35;;;;;;;10.75;6.07;;;8.10;91.20;;;;;;5014610;28;20387;-43
2022/05/05 03:02:02;;;;;;;14.70;7.63;;;8.10;91.10;;;;;;5014573;28;20132;-42
2022/05/05 03:04:28;;;;;;;12.80;6.50;;;8.10;91.40;;;;;;5014336;28;20061;-42
2022/05/05 03:06:55;;;;;;;13.95;6.72;;;8.10;91.50;;;;;;5013926;28;20060;-43
2022/05/05 03:09:22;;;;;;;14.38;6.38;;;8.10;91.40;;;;;;5014464;28;20050;-42
2022/05/05 03:11:48;;;;;;;12.95;6.88;;;8.10;91.40;;;;;;5012630;28;20487;-42
2022/05/05 03:14:15;;;;;;;9.93;6.15;;;8.10;91.40;;;;;;5013691;28;20050;-43
2022/05/05 03:16:43;;;;;;;11.65;6.47;;;8.10;91.30;;;;;;5012077;28;20052;-43
2022/05/05 03:19:10;;;;;;;15.60;6.88;;;8.10;91.40;;;;;;5014068;28;20056;-42
2022/05/05 03:21:37;;;;;;;18.20;7.70;;;8.00;91.30;;;;;;5014546;28;20045;-42
2022/05/05 03:24:04;;;;;;;13.85;6.85;;;8.00;91.50;;;;;;5013065;28;20398;-46
2022/05/05 03:26:31;;;;;;;17.85;8.68;;;8.00;91.70;;;;;;5013474;28;20060;-43
2022/05/05 03:28:58;;;;;;;13.55;8.20;;;8.00;92.20;;;;;;5012008;28;20137;-42
2022/05/05 03:31:25;;;;;;;15.30;7.15;;;8.00;92.50;;;;;;5007290;28;20129;-42
2022/05/05 03:33:53;;;;;;;19.20;7.65;;;7.90;92.40;;;;;;5010779;28;20064;-42
2022/05/05 03:36:20;;;;;;;12.55;6.20;;;7.90;92.30;;;;;;5004687;28;20045;-42
2022/05/05 03:38:46;;;;;;;11.73;7.22;;;7.90;92.10;;;;;;5009843;28;20060;-42
2022/05/05 03:41:13;;;;;;;13.85;6.88;;;7.90;92.10;;;;;;5012654;28;20057;-42
2022/05/05 03:43:40;;;;;;;19.17;7.40;;;7.80;91.90;;;;;;5013846;28;20050;-42
2022/05/05 03:46:06;;;;;;;16.50;7.82;;;7.90;92.10;;;;;;5013620;28;20057;-42
2022/05/05 03:48:36;;;;;;;13.07;5.78;;;7.80;92.10;;;;;;5014229;28;20045;-42
2022/05/05 03:51:04;;;;;;;14.73;7.60;;;7.70;92.00;;;;;;5012688;28;20470;-42
2022/05/05 03:53:31;;;;;;;10.93;6.60;;;7.70;92.10;;;;;;5004563;28;20073;-43
2022/05/05 03:55:58;;;;;;;14.95;7.43;;;7.70;92.00;;;;;;5013651;28;20057;-42
2022/05/05 03:58:26;;;;;;;11.43;7.22;;;7.70;92.30;;;;;;5011996;28;20056;-42
2022/05/05 04:00:52;;;;;;;18.58;7.68;;;7.70;92.60;;;;;;5012418;28;20060;-42
2022/05/05 04:03:36;;;;;;;14.10;7.15;;;7.70;92.50;;;;;;5011546;28;20097;-41
2022/05/05 04:06:05;;;;;;;17.73;8.07;;;7.60;92.30;;;;;;5007031;28;20077;-42
2022/05/05 04:08:32;;;;;;;15.65;8.05;;;7.60;92.50;;;;;;5013482;28;20137;-42
2022/05/05 04:10:59;;;;;;;15.55;7.15;;;7.70;92.70;;;;;;5004010;28;20045;-42
2022/05/05 04:13:26;;;;;;;11.60;6.22;;;7.60;92.70;;;;;;5006207;28;20057;-42
2022/05/05 04:15:53;;;;;;;12.00;7.05;;;7.60;92.50;;;;;;5011777;28;20494;-42
2022/05/05 04:18:19;;;;;;;16.33;7.40;;;7.50;92.60;;;;;;5012719;28;20490;-41
2022/05/05 04:20:47;;;;;;;15.73;7.82;;;7.60;92.50;;;;;;5011695;28;20048;-42
2022/05/05 04:23:15;;;;;;;17.02;7.90;;;7.50;92.50;;;;;;5012909;28;20057;-41
2022/05/05 04:25:42;;;;;;;13.25;7.93;;;7.50;92.70;;;;;;5012880;28;20371;-42
2022/05/05 04:28:09;;;;;;;11.95;7.30;;;7.50;92.70;;;;;;5003624;28;20050;-42
2022/05/05 04:30:36;;;;;;;13.18;6.90;;;7.50;92.80;;;;;;5012916;28;20048;-41
2022/05/05 04:33:03;;;;;;;16.08;8.25;;;7.50;92.60;;;;;;5011839;28;20512;-42
2022/05/05 04:35:30;;;;;;;17.05;8.13;;;7.50;92.70;;;;;;5012250;28;20085;-42
2022/05/05 04:37:57;;;;;;;15.07;7.57;;;7.50;92.70;;;;;;5000178;28;20058;-42
2022/05/05 04:40:25;;;;;;;15.85;8.15;;;7.50;92.80;;;;;;5003374;28;20050;-42
2022/05/05 04:42:51;;;;;;;12.75;7.22;;;7.50;93.00;;;;;;5011265;28;20056;-41
2022/05/05 04:45:18;;;;;;;11.80;7.75;;;7.40;92.90;;;;;;5011509;28;20050;-42
2022/05/05 04:47:45;;;;;;;14.45;7.80;;;7.50;92.90;;;;;;5013071;28;20393;-41
2022/05/05 04:50:12;;;;;;;13.38;7.80;;;7.40;92.90;;;;;;5011770;28;20056;-42
2022/05/05 04:52:39;;;;;;;15.55;7.60;;;7.50;92.90;;;;;;5012003;28;20048;-42
2022/05/05 04:55:05;;;;;;;15.18;8.82;;;7.40;93.00;;;;;;5011739;28;20129;-41
2022/05/05 04:57:36;;;;;;;14.05;8.40;;;7.50;93.20;;;;;;5012002;28;20050;-42
2022/05/05 05:00:03;;;;;;;12.50;8.13;;;7.50;93.30;;;;;;5009164;28;20558;-42
2022/05/05 05:02:30;;;;;;;12.40;8.50;;;7.50;93.30;;;;;;5007996;28;20077;-42
2022/05/05 05:04:56;;;;;;;16.33;8.85;;;7.50;93.40;;;;;;5010582;28;20061;-41
2022/05/05 05:07:23;;;;;;;13.38;8.93;;;7.50;93.60;;;;;;5010956;28;20137;-41
2022/05/05 05:09:50;;;;;;;18.25;8.35;;;7.50;93.60;;;;;;5012471;28;20050;-41
2022/05/05 05:12:16;;;;;;;17.55;9.00;;;7.50;93.50;;;;;;5010915;28;20060;-41
2022/05/05 05:14:44;;;;;;;16.85;9.90;;;7.60;93.60;;;;;;5011821;28;20053;-42
2022/05/05 05:17:11;;;;;;;17.70;8.98;;;7.70;93.90;;;;;;5007392;28;20553;-42
2022/05/05 05:19:38;;;;;;;21.42;10.68;;;7.70;94.10;;;;;;5008076;28;20112;-42
2022/05/05 05:22:05;;;;;;;17.55;9.35;;;7.70;94.30;;;;;;4999535;28;20050;-42
2022/05/05 05:24:32;;;;;;;17.35;9.20;;;7.70;94.60;;;;;;5009527;28;20129;-42
2022/05/05 05:26:59;;;;;;;22.42;12.25;;;7.80;94.70;;;;;;5011643;28;20045;-42
2022/05/05 05:29:25;;;;;;;25.00;12.90;;;7.80;95.20;;;;;;5012139;28;20129;-42
2022/05/05 05:31:53;;;;;;;19.80;12.10;;;7.90;96.00;;;;;;5010824;28;20058;-42
2022/05/05 05:34:20;;;;;;;23.35;12.05;;;7.90;96.50;;;;;;5010403;28;20406;-42
2022/05/05 05:36:49;;;;;;;24.20;12.63;;;7.90;96.70;;;;;;5011304;28;20050;-41
2022/05/05 05:39:16;;;;;;;23.20;11.55;;;8.00;96.90;;;;;;5010866;28;20124;-42
2022/05/05 05:41:43;;;;;;;19.77;11.77;;;8.10;97.10;;;;;;5009793;28;20405;-42
2022/05/05 05:44:10;;;;;;;20.92;12.25;;;8.20;97.00;;;;;;5011859;28;20096;-41
2022/05/05 05:46:36;;;;;;;29.02;13.05;;;8.40;96.90;;;;;;5012422;28;20048;-42
2022/05/05 05:49:05;;;;;;;25.30;12.85;;;8.50;97.10;;;;;;5011508;28;20050;-42
2022/05/05 05:51:32;;;;;;;23.75;12.18;;;8.60;97.10;;;;;;5003568;28;20062;-42
2022/05/05 05:53:58;;;;;;;21.02;12.52;;;8.70;97.10;;;;;;5011977;28;20065;-41
2022/05/05 05:56:25;;;;;;;20.05;11.35;;;8.80;97.20;;;;;;5009726;28;20049;-42
2022/05/05 05:58:52;;;;;;;21.50;11.10;;;8.90;97.30;;;;;;5011724;28;20521;-41
2022/05/05 06:01:18;;;;;;;21.85;11.32;;;8.90;97.10;;;;;;5009131;28;20060;-42
2022/05/05 06:03:53;;;;;;;20.25;11.88;;;9.00;97.10;;;;;;4999361;28;20129;-42
2022/05/05 06:06:21;;;;;;;16.90;11.18;;;9.00;97.30;;;;;;5008008;28;20141;-41
2022/05/05 06:08:48;;;;;;;20.35;11.40;;;9.10;97.10;;;;;;5001487;28;20042;-42
2022/05/05 06:11:16;;;;;;;24.45;11.95;;;9.10;97.10;;;;;;5007175;28;20053;-42
2022/05/05 06:13:43;;;;;;;40.38;13.55;;;9.20;97.20;;;;;;5011019;28;20053;-43
2022/05/05 06:16:10;;;;;;;25.42;12.30;;;9.30;97.00;;;;;;5010206;28;20049;-42
2022/05/05 06:18:37;;;;;;;21.77;11.75;;;9.30;97.00;;;;;;5009758;28;20061;-42
2022/05/05 06:21:04;;;;;;;22.83;12.05;;;9.30;97.00;;;;;;5010588;28;20120;-42
2022/05/05 06:23:32;;;;;;;23.60;12.57;;;9.50;97.00;;;;;;5006289;28;20054;-43
2022/05/05 06:25:59;;;;;;;23.52;12.00;;;9.80;97.10;;;;;;5006189;28;20056;-42
2022/05/05 06:28:26;;;;;;;17.33;11.43;;;9.90;96.80;;;;;;5011060;28;20048;-42
2022/05/05 06:30:52;;;;;;;22.48;11.38;;;10.10;96.60;;;;;;5013720;28;20050;-42
2022/05/05 06:33:20;;;;;;;22.85;11.63;;;10.20;96.30;;;;;;5011628;28;20056;-42
2022/05/05 06:35:46;;;;;;;20.10;11.35;;;10.30;96.10;;;;;;5017257;28;20045;-42
2022/05/05 06:38:13;;;;;;;19.95;10.63;;;10.50;96.00;;;;;;5008888;28;20060;-43
2022/05/05 06:40:42;;;;;;;18.55;10.52;;;10.60;95.80;;;;;;5014231;28;20056;-42
2022/05/05 06:43:09;;;;;;;20.60;10.00;;;10.80;95.90;;;;;;5005631;28;20069;-42
2022/05/05 06:45:36;;;;;;;21.20;10.13;;;11.00;95.20;;;;;;5008600;28;20133;-42
2022/05/05 06:48:03;;;;;;;22.48;10.00;;;11.10;95.00;;;;;;5013528;28;20053;-42
2022/05/05 06:50:29;;;;;;;21.73;9.18;;;11.30;94.80;;;;;;5014585;28;20064;-42
2022/05/05 06:52:59;;;;;;;17.88;9.57;;;11.40;94.50;;;;;;5009905;28;20057;-42
2022/05/05 06:55:26;;;;;;;19.85;9.15;;;11.50;94.20;;;;;;5012919;28;20042;-42
2022/05/05 06:57:54;;;;;;;27.85;9.85;;;11.70;94.00;;;;;;5011537;28;20060;-42
2022/05/05 07:00:20;;;;;;;20.63;9.48;;;11.80;93.90;;;;;;5014428;28;20072;-42
2022/05/05 07:02:46;;;;;;;19.17;9.68;;;11.90;93.90;;;;;;5011614;28;20046;-42
2022/05/05 07:05:26;;;;;;;27.85;10.38;;;12.00;93.70;;;;;;5010631;28;20438;-42
2022/05/05 07:07:53;;;;;;;20.50;9.60;;;12.10;93.60;;;;;;5005989;28;20061;-42
2022/05/05 07:13:06;;;;;;;21.15;9.65;;;12.20;93.30;;;;;;5014458;28;20046;-43
2022/05/05 07:15:33;;;;;;;22.42;9.40;;;12.30;93.30;;;;;;5013592;28;20078;-42
2022/05/05 07:18:00;;;;;;;20.20;8.98;;;12.40;93.20;;;;;;5014005;28;20060;-42
2022/05/05 07:20:27;;;;;;;21.20;9.80;;;12.60;93.00;;;;;;5013915;28;20081;-42
2022/05/05 07:22:55;;;;;;;21.13;9.25;;;12.70;92.70;;;;;;5010362;28;20085;-42
2022/05/05 07:25:22;;;;;;;21.13;8.57;;;12.90;92.50;;;;;;5010380;28;20041;-42
2022/05/05 07:27:48;;;;;;;24.60;8.07;;;13.10;92.10;;;;;;5012574;28;20062;-42
2022/05/05 07:30:16;;;;;;;16.67;7.75;;;13.40;91.60;;;;;;5013999;28;20048;-42
2022/05/05 07:32:43;;;;;;;20.70;7.25;;;13.50;91.30;;;;;;5008804;28;20045;-42
2022/05/05 07:35:11;;;;;;;21.02;7.25;;;13.60;90.70;;;;;;5013681;28;20056;-41
2022/05/05 07:37:39;;;;;;;18.73;7.60;;;13.70;90.20;;;;;;5013058;28;20081;-42
2022/05/05 07:40:06;;;;;;;16.02;6.97;;;13.90;90.00;;;;;;5012338;28;20050;-42
2022/05/05 07:42:34;;;;;;;16.17;6.35;;;14.00;88.70;;;;;;5013840;28;20124;-42
2022/05/05 07:45:00;;;;;;;20.40;6.75;;;14.10;87.80;;;;;;5013708;28;20049;-41
2022/05/05 07:47:28;;;;;;;20.90;6.30;;;14.30;87.40;;;;;;5013880;28;20057;-42
2022/05/05 07:49:55;;;;;;;14.25;6.28;;;14.40;85.90;;;;;;5009563;28;20050;-42
2022/05/05 07:52:22;;;;;;;16.27;6.90;;;14.40;84.70;;;;;;5013260;28;20057;-42
2022/05/05 07:54:48;;;;;;;15.98;6.35;;;14.50;84.90;;;;;;5012201;28;20052;-42
2022/05/05 07:57:17;;;;;;;16.52;5.88;;;14.60;85.00;;;;;;5013244;28;20391;-43
2022/05/05 07:59:45;;;;;;;19.63;6.43;;;14.70;84.10;;;;;;5013629;28;20045;-42
2022/05/05 08:02:15;;;;;;;14.95;6.03;;;14.70;83.90;;;;;;5013544;28;20410;-42
2022/05/05 08:04:43;;;;;;;16.98;5.43;;;14.90;83.40;;;;;;5013443;28;20073;-42
2022/05/05 08:07:10;;;;;;;19.80;6.25;;;15.00;82.80;;;;;;5011004;28;20068;-42
2022/05/05 08:09:37;;;;;;;16.70;6.35;;;15.20;82.90;;;;;;5008726;28;20054;-42
2022/05/05 08:12:04;;;;;;;13.93;6.30;;;15.30;82.10;;;;;;5013308;28;20042;-42
2022/05/05 08:14:31;;;;;;;15.02;6.18;;;15.40;81.30;;;;;;5013194;28;20120;-43
2022/05/05 08:16:58;;;;;;;16.88;6.43;;;15.50;81.30;;;;;;5013285;28;20056;-42
2022/05/05 08:19:25;;;;;;;12.02;5.90;;;15.60;80.90;;;;;;5013008;28;20077;-42
2022/05/05 08:21:53;;;;;;;14.23;6.55;;;15.80;80.90;;;;;;5013146;28;20164;-42
2022/05/05 08:29:48;;;;;;;19.58;5.72;;;15.90;79.50;;;;;;5012142;28;20087;-42
2022/05/05 08:32:15;;;;;;;13.25;5.63;;;16.10;79.80;;;;;;5012961;28;20052;-42
2022/05/05 08:34:42;;;;;;;18.48;5.75;;;16.40;79.60;;;;;;5012929;28;20050;-42
2022/05/05 08:37:10;;;;;;;13.80;5.47;;;16.60;79.20;;;;;;5013089;28;20049;-42
2022/05/05 08:39:38;;;;;;;14.77;5.43;;;16.90;77.60;;;;;;5011349;28;20136;-42
2022/05/05 08:42:05;;;;;;;13.45;5.57;;;16.90;76.60;;;;;;5008707;28;20065;-43
2022/05/05 08:44:32;;;;;;;12.38;5.60;;;17.10;76.50;;;;;;5010572;28;20490;-43
2022/05/05 08:46:59;;;;;;;11.27;5.68;;;17.20;76.20;;;;;;5013042;28;20060;-42
2022/05/05 08:49:26;;;;;;;12.48;5.55;;;17.30;75.40;;;;;;5011908;28;20485;-43
2022/05/05 08:51:54;;;;;;;12.98;5.22;;;17.50;75.20;;;;;;5012793;28;20046;-42
2022/05/05 08:54:22;;;;;;;8.63;5.25;;;17.50;74.50;;;;;;5011192;28;20053;-42
2022/05/05 08:56:50;;;;;;;11.15;5.78;;;17.50;74.20;;;;;;5011992;28;20064;-43
2022/05/05 08:59:17;;;;;;;9.57;5.35;;;17.60;74.10;;;;;;5012588;28;20053;-43
2022/05/05 09:01:44;;;;;;;8.98;5.43;;;17.70;73.50;;;;;;5012517;28;20046;-43
2022/05/05 09:04:11;;;;;;;9.75;5.60;;;17.80;73.60;;;;;;5012685;28;20046;-43
2022/05/05 09:06:42;;;;;;;11.27;5.63;;;17.90;72.80;;;;;;5012203;28;20612;-43
2022/05/05 09:09:24;;;;;;;9.27;5.78;;;18.10;72.60;;;;;;5012452;28;20060;-43
2022/05/05 09:12:06;;;;;;;;;;;18.20;72.00;;;;;;5012581;28;20048;-43
2022/05/05 09:14:36;;;;;;;10.60;6.45;;;18.40;73.10;;;;;;5012847;28;19927;-43
2022/05/05 09:17:05;;;;;;;14.93;6.25;;;18.50;71.50;;;;;;5012395;28;20490;-42
2022/05/05 09:19:35;;;;;;;15.75;7.13;;;18.60;70.60;;;;;;5012305;28;20121;-43
2022/05/05 09:22:03;;;;;;;19.27;6.65;;;18.80;71.00;;;;;;5011834;28;20116;-43
2022/05/05 09:24:41;;;;;;;12.70;7.47;;;18.80;69.90;;;;;;5012037;28;20053;-43
2022/05/05 09:27:32;;;;;;;12.93;7.88;;;18.80;69.20;;;;;;5012262;28;20062;-43
2022/05/05 09:30:07;;;;;;;9.93;7.03;;;18.90;68.80;;;;;;4997067;28;20443;-43
2022/05/05 09:32:35;;;;;;;12.98;7.28;;;18.90;68.10;;;;;;5012342;28;20045;-43
2022/05/05 09:35:03;;;;;;;9.35;6.30;;;19.00;67.30;;;;;;5003946;28;20107;-43
2022/05/05 09:37:30;;;;;;;12.00;6.45;;;19.00;67.70;;;;;;5012227;28;20049;-43
2022/05/05 09:39:58;;;;;;;14.00;6.88;;;19.10;67.30;;;;;;5010851;28;20062;-43
2022/05/05 09:42:36;;;;;;;12.35;6.60;;;19.10;68.00;;;;;;5003263;28;20132;-43
2022/05/05 09:45:17;;;;;;;15.30;6.75;;;19.40;67.80;;;;;;5011875;28;20458;-43
2022/05/05 09:47:52;;;;;;;12.18;6.38;;;19.60;68.00;;;;;;5011113;28;20060;-43
2022/05/05 09:50:21;;;;;;;14.32;6.32;;;19.80;67.60;;;;;;5002824;28;20104;-43
2022/05/05 09:58:29;;;;;;;11.35;6.68;;;20.20;66.60;;;;;;5003885;28;20050;-43
2022/05/05 10:01:04;;;;;;;13.05;6.65;;;20.50;66.40;;;;;;5012917;28;20050;-43
2022/05/05 10:06:25;;;;;;;13.95;7.47;;;20.90;65.50;;;;;;5014413;28;20054;-43
2022/05/05 10:08:53;;;;;;;10.82;7.07;;;20.90;63.80;;;;;;5015578;28;20085;-43
2022/05/05 10:11:22;;;;;;;13.68;7.75;;;20.80;63.30;;;;;;5015391;28;20046;-43
2022/05/05 10:13:49;;;;;;;12.50;7.03;;;20.80;62.40;;;;;;5015531;28;20104;-43
2022/05/05 10:16:16;;;;;;;12.18;6.90;;;20.70;62.20;;;;;;5012273;28;20055;-43
2022/05/05 10:18:43;;;;;;;14.07;6.45;;;20.70;62.20;;;;;;5015369;28;20508;-43
2022/05/05 10:21:10;;;;;;;14.15;7.15;;;20.80;63.20;;;;;;5013947;28;20509;-43
2022/05/05 10:23:43;;;;;;;12.05;7.20;;;20.80;61.60;;;;;;5015268;28;20120;-43
2022/05/05 10:26:10;;;;;;;13.23;7.40;;;20.90;61.20;;;;;;5015558;28;20049;-43
2022/05/05 10:28:43;;;;;;;11.57;7.57;;;21.00;60.50;;;;;;5014749;28;20052;-43
2022/05/05 10:31:13;;;;;;;12.95;7.10;;;21.00;59.80;;;;;;5015284;28;20046;-42
2022/05/05 10:33:59;;;;;;;11.43;6.80;;;21.00;59.10;;;;;;5006027;28;20050;-43
2022/05/05 10:36:26;;;;;;;12.32;6.60;;;21.10;59.90;;;;;;5014142;28;20095;-43
2022/05/05 10:38:52;;;;;;;13.80;6.55;;;21.30;60.00;;;;;;5015216;28;20056;-42
2022/05/05 10:41:35;;;;;;;12.05;6.93;;;21.50;59.90;;;;;;5014717;28;20061;-42
2022/05/05 10:44:22;;;;;;;14.18;7.13;;;21.70;58.30;;;;;;5009555;28;20054;-42
2022/05/05 10:47:01;;;;;;;12.05;6.70;;;21.70;58.20;;;;;;5007493;28;20042;-42
2022/05/05 10:49:49;;;;;;;10.90;6.18;;;21.60;58.40;;;;;;5014988;28;20468;-42
2022/05/05 10:52:29;;;;;;;10.38;5.90;;;21.50;57.50;;;;;;5005139;28;20128;-42
2022/05/05 10:54:57;;;;;;;13.77;6.35;;;21.40;58.00;;;;;;5012484;28;20064;-42
2022/05/05 10:57:43;;;;;;;10.02;5.88;;;21.30;58.20;;;;;;5011504;28;20479;-42
2022/05/05 11:00:12;;;;;;;11.35;6.13;;;21.30;59.10;;;;;;5009242;28;20057;-42
2022/05/05 11:02:39;;;;;;;14.82;6.40;;;21.50;58.80;;;;;;5029314;28;20058;-42
2022/05/05 11:05:26;;;;;;;12.90;7.32;;;21.50;58.30;;;;;;5013803;28;20082;-43
2022/05/05 11:07:53;;;;;;;10.90;6.60;;;21.60;56.90;;;;;;5012107;28;20064;-43
2022/05/05 11:10:45;;;;;;;12.32;6.28;;;21.30;56.80;;;;;;5005435;28;20065;-43
2022/05/05 11:13:33;;;;;;;12.38;7.07;;;21.40;58.60;;;;;;5007014;28;20045;-43
2022/05/05 11:22:07;;;;;;;10.57;5.95;;;21.50;58.30;;;;;;5013885;28;20538;-43
2022/05/05 11:24:34;;;;;;;9.43;5.68;;;21.70;58.80;;;;;;5010448;28;20470;-42
2022/05/05 11:27:01;;;;;;;8.95;5.88;;;21.90;59.00;;;;;;5010950;28;20061;-42
2022/05/05 11:29:29;;;;;;;10.90;5.80;;;22.00;59.00;;;;;;5011843;28;20056;-42
2022/05/05 11:32:02;;;;;;;11.00;5.85;;;22.30;58.80;;;;;;5010717;28;20062;-42
2022/05/05 11:34:33;;;;;;;8.65;5.60;;;22.40;58.00;;;;;;5012728;28;20049;-42
2022/05/05 11:37:00;;;;;;;10.82;6.45;;;22.40;57.90;;;;;;5010833;28;20058;-43
2022/05/05 11:39:27;;;;;;;12.48;5.68;;;22.50;57.70;;;;;;5012662;28;20050;-42
2022/05/05 11:41:58;;;;;;;11.48;6.38;;;22.60;57.50;;;;;;5010780;28;20133;-42
2022/05/05 11:44:25;;;;;;;;;;;22.70;56.60;;;;;;5014364;28;20068;-43
2022/05/05 11:46:53;;;;;;;11.60;6.88;;;22.70;56.50;;;;;;5011808;28;20015;-42
2022/05/05 11:49:21;;;;;;;11.98;6.28;;;22.60;56.70;;;;;;5012852;28;20049;-42
2022/05/05 11:51:48;;;;;;;10.40;6.60;;;22.60;56.40;;;;;;5008544;28;20471;-42
2022/05/05 11:54:16;;;;;;;12.73;7.40;;;22.80;56.60;;;;;;5010316;28;20058;-42
2022/05/05 11:56:44;;;;;;;11.50;6.30;;;23.00;55.80;;;;;;5006950;28;20145;-42
2022/05/05 12:02:00;;;;;;;11.18;7.75;;;23.60;55.40;;;;;;5011570;28;20049;-43
2022/05/05 12:04:28;;;;;;;11.65;6.78;;;23.70;54.20;;;;;;5008467;28;20050;-43
2022/05/05 12:06:55;;;;;;;13.27;7.40;;;23.70;54.00;;;;;;5004963;28;20113;-43
2022/05/05 12:09:22;;;;;;;9.98;5.97;;;23.60;53.60;;;;;;5009779;28;20058;-43
2022/05/05 12:11:48;;;;;;;10.77;7.13;;;23.60;55.30;;;;;;5008417;28;20056;-43
2022/05/05 12:14:20;;;;;;;11.43;6.65;;;23.60;54.50;;;;;;5011105;28;20483;-42
2022/05/05 12:16:47;;;;;;;11.73;6.80;;;23.50;53.50;;;;;;5013144;28;20050;-42
2022/05/05 12:19:14;;;;;;;9.45;6.07;;;23.40;54.60;;;;;;5012081;28;20057;-43
2022/05/05 12:21:54;;;;;;;12.15;5.55;;;23.40;54.70;;;;;;5012280;28;20052;-43
2022/05/05 12:24:22;;;;;;;15.32;6.32;;;23.40;55.00;;;;;;5012515;28;20054;-43
2022/05/05 12:26:48;;;;;;;15.35;6.10;;;23.40;54.40;;;;;;5013156;28;20046;-42
2022/05/05 12:29:15;;;;;;;9.10;6.10;;;23.40;53.70;;;;;;4995603;28;20509;-42
2022/05/05 12:31:52;;;;;;;11.05;5.70;;;23.50;54.50;;;;;;5012027;28;20057;-43
2022/05/05 12:34:27;;;;;;;13.80;5.93;;;23.90;54.80;;;;;;5012935;28;20061;-42
2022/05/05 12:37:08;;;;;;;13.63;5.05;;;24.30;53.70;;;;;;5013005;28;20054;-42
2022/05/05 12:39:35;;;;;;;8.82;5.57;;;24.50;54.20;;;;;;5012510;28;20050;-41
2022/05/05 12:42:02;;;;;;;11.95;6.28;;;24.80;52.50;;;;;;5012876;28;20144;-42
2022/05/05 12:44:33;;;;;;;9.70;5.70;;;24.90;51.10;;;;;;5012764;28;20387;-43
2022/05/05 12:47:03;;;;;;;7.32;5.43;;;25.00;50.90;;;;;;5008802;28;20057;-42
2022/05/05 12:49:36;;;;;;;10.35;5.78;;;25.10;51.20;;;;;;5009307;28;20054;-42
2022/05/05 12:52:03;;;;;;;10.48;6.18;;;25.20;50.00;;;;;;5011656;28;20096;-43
2022/05/05 13:00:00;;;;;;;10.30;5.90;;;24.70;50.20;;;;;;5012667;28;20084;-43
2022/05/05 13:02:27;;;;;;;7.60;5.32;;;24.60;49.60;;;;;;5008343;28;20486;-43
2022/05/05 13:04:53;;;;;;;9.90;5.40;;;24.60;50.00;;;;;;5004229;28;20046;-43
2022/05/05 13:07:20;;;;;;;9.00;4.15;;;24.70;50.60;;;;;;5012504;28;20054;-43
2022/05/05 13:09:48;;;;;;;9.25;5.60;;;24.90;51.70;;;;;;5010381;28;20517;-43
2022/05/05 13:12:15;;;;;;;11.02;4.88;;;25.00;50.10;;;;;;5012508;28;20050;-43
2022/05/05 13:14:42;;;;;;;7.10;4.85;;;25.10;50.10;;;;;;5012428;28;20406;-43
2022/05/05 13:17:08;;;;;;;7.22;4.47;;;25.10;49.80;;;;;;5012418;28;20046;-43
2022/05/05 13:19:35;;;;;;;7.63;4.63;;;25.10;50.10;;;;;;5012259;28;20045;-43
2022/05/05 13:22:03;;;;;;;6.43;3.85;;;25.20;49.50;;;;;;5002894;28;20056;-43
2022/05/05 13:24:30;;;;;;;8.15;4.22;;;25.20;49.20;;;;;;5012736;28;20049;-42
2022/05/05 13:26:58;;;;;;;6.47;4.00;;;25.20;50.60;;;;;;5011106;28;20064;-42
2022/05/05 13:29:24;;;;;;;5.55;4.32;;;25.30;50.50;;;;;;5003483;28;20394;-43
2022/05/05 13:31:51;;;;;;;9.10;5.22;;;25.40;50.90;;;;;;5012324;28;20429;-43
2022/05/05 13:34:19;;;;;;;6.30;4.75;;;25.70;49.70;;;;;;5011830;28;20053;-42
2022/05/05 13:36:45;;;;;;;8.27;4.82;;;25.80;48.80;;;;;;5009967;28;20046;-42